createdAt,value
2022-11-21T00:00:00.837Z,1011.24
2022-11-21T00:10:00.787Z,1011.14
2022-11-21T00:20:01.236Z,1010.93
2022-11-21T00:30:00.977Z,1010.80
2022-11-21T00:40:01.658Z,1010.69
2022-11-21T00:50:01.311Z,1010.74
2022-11-21T01:00:01.062Z,1010.66
2022-11-21T01:10:01.520Z,1010.57
2022-11-21T01:20:01.328Z,1010.53
2022-11-21T01:30:00.955Z,1010.45
2022-11-21T01:40:00.191Z,1010.44
2022-11-21T01:50:01.579Z,1010.37
2022-11-21T02:00:01.245Z,1010.36
2022-11-21T02:10:01.300Z,1010.32
2022-11-21T02:20:01.603Z,1010.36
2022-11-21T02:30:02.897Z,1010.22
2022-11-21T02:40:01.096Z,1010.05
2022-11-21T02:50:01.251Z,1009.87
2022-11-21T03:00:00.154Z,1009.81
2022-11-21T03:10:01.460Z,1009.83
2022-11-21T03:20:00.986Z,1009.78
2022-11-21T03:30:01.209Z,1009.70
2022-11-21T03:40:01.296Z,1009.76
2022-11-21T03:50:01.035Z,1009.92
2022-11-21T04:00:01.268Z,1010.02
2022-11-21T04:10:01.941Z,1010.03
2022-11-21T04:20:01.258Z,1009.98
2022-11-21T04:30:01.406Z,1009.99
2022-11-21T04:40:00.179Z,1010.01
2022-11-21T04:50:01.065Z,1010.00
2022-11-21T05:00:01.358Z,1010.04
2022-11-21T05:10:00.143Z,1009.96
2022-11-21T05:20:01.940Z,1010.04
2022-11-21T05:30:01.053Z,1010.12
2022-11-21T05:40:01.029Z,1010.17
2022-11-21T05:50:01.001Z,1010.04
2022-11-21T06:00:01.340Z,1009.96
2022-11-21T06:10:01.055Z,1010.00
2022-11-21T06:20:01.282Z,1010.06
2022-11-21T06:30:01.328Z,1010.09
2022-11-21T06:40:00.160Z,1010.13
2022-11-21T06:50:01.245Z,1010.20
2022-11-21T07:00:01.072Z,1010.25
2022-11-21T07:10:00.137Z,1010.39
2022-11-21T07:20:01.891Z,1010.51
2022-11-21T07:30:01.252Z,1010.57
2022-11-21T07:40:02.371Z,1010.60
2022-11-21T07:50:01.260Z,1010.78
2022-11-21T08:00:01.210Z,1010.85
2022-11-21T08:10:01.280Z,1010.92
2022-11-21T08:20:00.183Z,1010.97
2022-11-21T08:30:01.032Z,1011.06
2022-11-21T08:40:01.519Z,1011.09
2022-11-21T08:50:03.081Z,1011.24
2022-11-21T09:00:00.156Z,1011.32
2022-11-21T09:10:00.997Z,1011.36
2022-11-21T09:20:01.312Z,1011.37
2022-11-21T09:30:00.126Z,1011.51
2022-11-21T09:40:01.500Z,1011.59
2022-11-21T09:50:00.132Z,1011.63
2022-11-21T10:00:01.291Z,1011.63
2022-11-21T10:10:01.238Z,1011.76
2022-11-21T10:20:01.211Z,1011.90
2022-11-21T10:30:00.998Z,1011.99
2022-11-21T10:40:01.612Z,1012.16
2022-11-21T10:50:01.730Z,1012.03
2022-11-21T11:00:03.626Z,1012.07
2022-11-21T11:10:01.535Z,1012.14
2022-11-21T11:20:00.167Z,1012.12
2022-11-21T11:30:01.034Z,1012.12
2022-11-21T11:40:00.186Z,1012.15
2022-11-21T11:50:01.367Z,1012.11
2022-11-21T12:00:00.178Z,1011.96
2022-11-21T12:10:01.412Z,1012.03
2022-11-21T12:20:01.543Z,1011.98
2022-11-21T12:30:01.222Z,1011.95
2022-11-21T12:40:01.253Z,1012.00
2022-11-21T12:50:01.313Z,1011.94
2022-11-21T13:00:02.882Z,1011.92
2022-11-21T13:10:01.656Z,1011.84
2022-11-21T13:20:01.783Z,1011.81
2022-11-21T13:30:00.987Z,1011.82
2022-11-21T13:40:00.159Z,1011.75
2022-11-21T13:50:01.043Z,1011.56
2022-11-21T14:00:01.630Z,1011.47
2022-11-21T14:10:00.964Z,1011.42
2022-11-21T14:20:01.096Z,1011.31
2022-11-21T14:30:01.100Z,1011.25
2022-11-21T14:40:01.130Z,1011.19
2022-11-21T14:50:06.809Z,1011.09
2022-11-21T15:00:00.169Z,1011.36
2022-11-21T15:20:01.108Z,1011.47
2022-11-21T15:30:01.277Z,1011.49
2022-11-21T15:40:01.139Z,1011.43
2022-11-21T15:50:01.113Z,1011.39
2022-11-21T16:00:01.262Z,1011.38
2022-11-21T16:10:03.227Z,1011.23
2022-11-21T16:20:00.159Z,1011.33
2022-11-21T16:30:01.320Z,1011.12
2022-11-21T16:40:01.472Z,1011.07
2022-11-21T16:50:01.027Z,1011.12
2022-11-21T17:10:01.482Z,1011.20
2022-11-21T17:20:00.192Z,1011.19
2022-11-21T17:30:00.146Z,1011.19
2022-11-21T17:40:01.504Z,1010.93
2022-11-21T17:50:05.533Z,1011.02
2022-11-21T18:00:01.454Z,1010.87
2022-11-21T18:10:14.530Z,1010.69
2022-11-21T18:20:01.242Z,1010.81
2022-11-21T18:30:01.385Z,1010.74
2022-11-21T18:40:01.026Z,1010.62
2022-11-21T18:50:00.157Z,1010.46
2022-11-21T19:00:00.200Z,1010.22
2022-11-21T19:10:20.558Z,1010.10
2022-11-21T19:20:00.992Z,1010.34
2022-11-21T19:30:01.262Z,1010.11
2022-11-21T19:40:01.221Z,1009.85
2022-11-21T19:50:00.144Z,1009.60
2022-11-21T20:00:01.103Z,1009.36
2022-11-21T20:10:00.116Z,1009.19
2022-11-21T20:20:01.533Z,1009.20
2022-11-21T20:30:00.140Z,1009.16
2022-11-21T20:40:01.506Z,1009.18
2022-11-21T20:50:00.137Z,1009.13
2022-11-21T21:00:01.240Z,1009.05
2022-11-21T21:10:00.144Z,1009.09
2022-11-21T21:20:02.145Z,1009.25
2022-11-21T21:30:01.411Z,1009.57
2022-11-21T21:40:02.230Z,1009.60
2022-11-21T21:50:01.350Z,1009.95
2022-11-21T22:00:01.330Z,1009.73
2022-11-21T22:10:01.981Z,1009.59
2022-11-21T22:20:01.025Z,1009.54
2022-11-21T22:30:01.315Z,1009.45
2022-11-21T22:40:02.189Z,1009.29
2022-11-21T22:50:00.157Z,1009.20
2022-11-21T23:00:03.921Z,1009.13
2022-11-21T23:10:01.246Z,1009.18
2022-11-21T23:20:02.327Z,1009.10
2022-11-21T23:30:00.129Z,1009.13
2022-11-21T23:40:00.175Z,1009.19
2022-11-21T23:50:01.029Z,1009.12
